Amarillo, TX (79120)

2:00 AM CDT on September 02, 2014 (GMT -0500)
Travis middle school | Change Station
CLOSE
Current Station
Personal Weather Station
Location: Amarillo, TX
Elevation: 3658 ft
Nearby Weather Stations

Elev 3658 ft 35.24 °N, 101.81 °W | Updated 58 seconds ago

Clear
Clear
73.0 °F
Feels Like 75 °F
N
5.8
Wind Variable Wind from SE

Today
High -- | Low -- °F
--% Chance of Precip.
Yesterday
High -- | Low -- °F
Precip. -- in
7:20 AM 8:12 PM
Waxing Crescent, 48% visible
Pressure 29.74 in
Visibility 10.0 miles
Clouds Clear
Heat Index 75 °F
Dew Point 63 °F
Humidity 72%
Rainfall 0.00 in
Snow Depth Not available.
UV 0 out of 12
Pollen 11.10 out of 12
Air Quality Not available.
Flu Activity Not available.
METAR KAMA 020653Z AUTO 13012KT 10SM CLR 23/17 A2991 RMK AO2 SLP070 T02280172

More Conditions Fewer Conditions

Pressure 29.74 in
Visibility 10.0 miles
Clouds Clear
Heat Index 75 °F
Dew Point 63 °F
Humidity 72%
Rainfall 0.00 in
Snow Depth Not available.
UV 0 out of 12
Pollen 11.10 out of 12
Air Quality Not available.
Flu Activity Not available.
METAR KAMA 020653Z AUTO 13012KT 10SM CLR 23/17 A2991 RMK AO2 SLP070 T02280172

More Conditions Fewer Conditions

10-Day Weather Forecast

Almanac

Astronomy

Sep. 02, 2014 Rise Set
Actual Time 7:20 AM CDT 8:12 PM CDT
Civil Twilight 6:54 AM CDT 8:38 PM CDT
Nautical Twilight 6:23 AM CDT 9:08 PM CDT
Astronomical Twilight 5:52 AM CDT 9:40 PM CDT
Moon 2:50 PM CDT 12:31 AM CDT
Length of Visible Light 13h 43m
Length of Day
12h 52m
Tomorrow will be 2m 7s shorter.
Waxing Crescent, 48% of the Moon is Illuminated
Today
Waxing Crescent
Sep 2
First Quarter
Sep 8
Full
Sep 15
Last Quarter
Sep 24
New

Today's Extremes

State Highs State Lows

Community

WunderPhotos

Upload Photos

1,749,589 photos uploaded!

WunderBlogs® & News

Nearby

Snow Depth

Station Depth Elevation
No new snow has been reported.

Earthquake Activity

City Distance Mag. Time & Date
No recent earthquake activity has been reported nearby.
Minimum magnitude displayed is 2.5.

Coastal Water Temperatures

Place Temperature
No Stations Reporting

Nearby Weather Stations